sensor_id;sensor_type;location;lat;lon;timestamp;temperature;humidity
9965;DHT22;5023;53.554;9.964;2022-07-12T01:12:29;16.00;99.90
9965;DHT22;5023;53.554;9.964;2022-07-12T03:31:54;15.30;99.90
9965;DHT22;5023;53.554;9.964;2022-07-12T03:37:43;15.30;99.90
9965;DHT22;5023;53.554;9.964;2022-07-12T03:43:40;15.30;99.90
9965;DHT22;5023;53.554;9.964;2022-07-12T03:55:34;15.30;99.90
9965;DHT22;5023;53.554;9.964;2022-07-12T04:01:34;15.30;99.90
9965;DHT22;5023;53.554;9.964;2022-07-12T04:07:13;15.30;99.90
9965;DHT22;5023;53.554;9.964;2022-07-12T04:19:15;15.30;99.90
9965;DHT22;5023;53.554;9.964;2022-07-12T04:24:50;15.30;99.90
9965;DHT22;5023;53.554;9.964;2022-07-12T04:29:53;15.40;99.90
9965;DHT22;5023;53.554;9.964;2022-07-12T04:54:02;15.60;99.90
9965;DHT22;5023;53.554;9.964;2022-07-12T04:59:40;15.60;99.90
9965;DHT22;5023;53.554;9.964;2022-07-12T05:05:21;15.70;99.90
9965;DHT22;5023;53.554;9.964;2022-07-12T05:30:33;16.10;99.90
9965;DHT22;5023;53.554;9.964;2022-07-12T05:36:25;16.20;99.90
9965;DHT22;5023;53.554;9.964;2022-07-12T05:42:00;16.20;99.90
9965;DHT22;5023;53.554;9.964;2022-07-12T05:53:33;16.50;99.90
9965;DHT22;5023;53.554;9.964;2022-07-12T05:59:36;16.70;99.90
9965;DHT22;5023;53.554;9.964;2022-07-12T06:05:31;16.80;99.90
9965;DHT22;5023;53.554;9.964;2022-07-12T06:18:01;16.80;99.90
9965;DHT22;5023;53.554;9.964;2022-07-12T06:23:38;16.80;99.90
9965;DHT22;5023;53.554;9.964;2022-07-12T06:41:46;17.00;99.90
9965;DHT22;5023;53.554;9.964;2022-07-12T06:47:27;17.00;99.90
9965;DHT22;5023;53.554;9.964;2022-07-12T06:52:33;17.00;99.90
9965;DHT22;5023;53.554;9.964;2022-07-12T07:40:25;17.80;99.90
9965;DHT22;5023;53.554;9.964;2022-07-12T07:46:08;17.90;99.90
9965;DHT22;5023;53.554;9.964;2022-07-12T07:58:28;18.10;99.90
9965;DHT22;5023;53.554;9.964;2022-07-12T08:04:26;18.40;99.90
9965;DHT22;5023;53.554;9.964;2022-07-12T08:10:01;18.80;99.90
9965;DHT22;5023;53.554;9.964;2022-07-12T08:21:18;18.80;99.90
9965;DHT22;5023;53.554;9.964;2022-07-12T08:26:56;18.90;99.90
9965;DHT22;5023;53.554;9.964;2022-07-12T08:50:30;19.20;99.90
9965;DHT22;5023;53.554;9.964;2022-07-12T08:56:33;19.30;99.90
9965;DHT22;5023;53.554;9.964;2022-07-12T09:08:33;19.40;99.90
9965;DHT22;5023;53.554;9.964;2022-07-12T09:14:21;19.40;99.90
9965;DHT22;5023;53.554;9.964;2022-07-12T09:19:54;19.30;99.90
9965;DHT22;5023;53.554;9.964;2022-07-12T09:32:22;19.60;99.90
9965;DHT22;5023;53.554;9.964;2022-07-12T09:38:49;19.80;99.90
9965;DHT22;5023;53.554;9.964;2022-07-12T09:44:09;19.90;99.90
9965;DHT22;5023;53.554;9.964;2022-07-12T09:49:53;20.10;99.90
9965;DHT22;5023;53.554;9.964;2022-07-12T09:55:13;20.40;99.90
9965;DHT22;5023;53.554;9.964;2022-07-12T10:17:55;20.60;99.90
9965;DHT22;5023;53.554;9.964;2022-07-12T10:23:34;20.80;99.90
9965;DHT22;5023;53.554;9.964;2022-07-12T10:47:20;21.40;99.90
9965;DHT22;5023;53.554;9.964;2022-07-12T10:53:21;21.50;99.90
9965;DHT22;5023;53.554;9.964;2022-07-12T10:59:17;21.50;99.90
9965;DHT22;5023;53.554;9.964;2022-07-12T11:53:53;24.20;99.90
9965;DHT22;5023;53.554;9.964;2022-07-12T12:04:16;24.50;99.90
9965;DHT22;5023;53.554;9.964;2022-07-12T12:16:10;25.30;99.90
9965;DHT22;5023;53.554;9.964;2022-07-12T12:21:47;25.30;99.90
9965;DHT22;5023;53.554;9.964;2022-07-12T12:27:47;25.40;99.90
9965;DHT22;5023;53.554;9.964;2022-07-12T12:33:41;25.70;99.90
9965;DHT22;5023;53.554;9.964;2022-07-12T12:39:29;26.20;99.90
9965;DHT22;5023;53.554;9.964;2022-07-12T12:44:34;26.50;99.90
9965;DHT22;5023;53.554;9.964;2022-07-12T12:56:23;26.80;99.90
9965;DHT22;5023;53.554;9.964;2022-07-12T13:02:18;27.20;99.90
9965;DHT22;5023;53.554;9.964;2022-07-12T13:07:48;27.70;99.90
9965;DHT22;5023;53.554;9.964;2022-07-12T13:13:05;27.70;99.90
9965;DHT22;5023;53.554;9.964;2022-07-12T13:18:44;28.10;99.90
9965;DHT22;5023;53.554;9.964;2022-07-12T14:00:36;29.00;97.50
9965;DHT22;5023;53.554;9.964;2022-07-12T14:05:46;29.10;95.70
9965;DHT22;5023;53.554;9.964;2022-07-12T14:11:08;29.00;95.90
9965;DHT22;5023;53.554;9.964;2022-07-12T14:16:46;28.60;96.80
9965;DHT22;5023;53.554;9.964;2022-07-12T14:22:16;28.80;96.40
9965;DHT22;5023;53.554;9.964;2022-07-12T14:28:02;28.60;95.60
9965;DHT22;5023;53.554;9.964;2022-07-12T14:39:01;28.70;94.40
9965;DHT22;5023;53.554;9.964;2022-07-12T14:44:09;28.80;94.90
9965;DHT22;5023;53.554;9.964;2022-07-12T14:49:29;28.60;94.60
9965;DHT22;5023;53.554;9.964;2022-07-12T14:54:40;28.10;96.10
9965;DHT22;5023;53.554;9.964;2022-07-12T14:59:59;28.20;94.70
9965;DHT22;5023;53.554;9.964;2022-07-12T15:29:47;28.00;96.00
9965;DHT22;5023;53.554;9.964;2022-07-12T15:41:06;27.80;95.40
9965;DHT22;5023;53.554;9.964;2022-07-12T15:46:46;27.50;97.50
9965;DHT22;5023;53.554;9.964;2022-07-12T15:52:32;27.40;98.10
9965;DHT22;5023;53.554;9.964;2022-07-12T15:58:13;27.40;98.30
9965;DHT22;5023;53.554;9.964;2022-07-12T16:03:30;27.00;98.50
9965;DHT22;5023;53.554;9.964;2022-07-12T16:09:05;26.80;99.80
9965;DHT22;5023;53.554;9.964;2022-07-12T16:20:37;26.60;99.90
9965;DHT22;5023;53.554;9.964;2022-07-12T16:25:56;26.50;99.90
9965;DHT22;5023;53.554;9.964;2022-07-12T16:31:49;26.30;99.90
9965;DHT22;5023;53.554;9.964;2022-07-12T16:37:13;26.00;99.90
9965;DHT22;5023;53.554;9.964;2022-07-12T16:42:17;25.70;99.90
9965;DHT22;5023;53.554;9.964;2022-07-12T16:47:36;25.60;99.90
9965;DHT22;5023;53.554;9.964;2022-07-12T16:53:06;25.60;99.90
9965;DHT22;5023;53.554;9.964;2022-07-12T16:58:33;25.50;99.90
9965;DHT22;5023;53.554;9.964;2022-07-12T17:16:21;25.40;99.90
9965;DHT22;5023;53.554;9.964;2022-07-12T17:22:03;25.30;99.90
9965;DHT22;5023;53.554;9.964;2022-07-12T17:33:28;25.30;99.90
9965;DHT22;5023;53.554;9.964;2022-07-12T17:38:36;25.10;99.90
9965;DHT22;5023;53.554;9.964;2022-07-12T17:44:18;24.90;99.90
9965;DHT22;5023;53.554;9.964;2022-07-12T17:50:01;24.80;99.90
9965;DHT22;5023;53.554;9.964;2022-07-12T17:55:17;24.80;99.90
9965;DHT22;5023;53.554;9.964;2022-07-12T18:01:16;24.70;99.90
9965;DHT22;5023;53.554;9.964;2022-07-12T18:06:22;24.60;99.90
9965;DHT22;5023;53.554;9.964;2022-07-12T18:12:19;24.50;99.90
9965;DHT22;5023;53.554;9.964;2022-07-12T18:17:39;24.30;99.90
9965;DHT22;5023;53.554;9.964;2022-07-12T18:23:01;24.10;99.90
9965;DHT22;5023;53.554;9.964;2022-07-12T18:28:37;24.30;99.90
9965;DHT22;5023;53.554;9.964;2022-07-12T18:33:40;24.10;99.90
9965;DHT22;5023;53.554;9.964;2022-07-12T18:45:21;24.00;99.90
9965;DHT22;5023;53.554;9.964;2022-07-12T18:50:31;24.00;99.90
9965;DHT22;5023;53.554;9.964;2022-07-12T18:55:48;24.00;99.90
9965;DHT22;5023;53.554;9.964;2022-07-12T19:01:11;23.90;99.90
9965;DHT22;5023;53.554;9.964;2022-07-12T19:06:29;23.80;99.90
9965;DHT22;5023;53.554;9.964;2022-07-12T19:11:33;23.70;99.90
9965;DHT22;5023;53.554;9.964;2022-07-12T19:17:12;23.50;99.90
9965;DHT22;5023;53.554;9.964;2022-07-12T19:23:05;23.50;99.90
9965;DHT22;5023;53.554;9.964;2022-07-12T19:52:35;23.20;99.90
9965;DHT22;5023;53.554;9.964;2022-07-12T20:03:38;23.00;99.90
9965;DHT22;5023;53.554;9.964;2022-07-12T20:14:41;22.90;99.90
9965;DHT22;5023;53.554;9.964;2022-07-12T20:20:17;22.70;99.90
9965;DHT22;5023;53.554;9.964;2022-07-12T20:31:44;22.40;99.90
9965;DHT22;5023;53.554;9.964;2022-07-12T20:54:51;22.20;99.90
9965;DHT22;5023;53.554;9.964;2022-07-12T20:59:59;22.10;99.90
9965;DHT22;5023;53.554;9.964;2022-07-12T21:05:23;22.10;99.90
9965;DHT22;5023;53.554;9.964;2022-07-12T21:11:04;22.10;99.90
9965;DHT22;5023;53.554;9.964;2022-07-12T21:17:35;22.10;99.90
9965;DHT22;5023;53.554;9.964;2022-07-12T21:23:00;22.00;99.90
9965;DHT22;5023;53.554;9.964;2022-07-12T21:28:21;22.00;99.90
9965;DHT22;5023;53.554;9.964;2022-07-12T21:34:24;22.00;99.90
9965;DHT22;5023;53.554;9.964;2022-07-12T21:39:33;22.00;99.90
9965;DHT22;5023;53.554;9.964;2022-07-12T21:50:21;22.00;99.90
9965;DHT22;5023;53.554;9.964;2022-07-12T21:55:24;22.00;99.90
9965;DHT22;5023;53.554;9.964;2022-07-12T22:00:27;22.00;99.90
9965;DHT22;5023;53.554;9.964;2022-07-12T22:06:06;22.00;99.90
9965;DHT22;5023;53.554;9.964;2022-07-12T22:11:24;22.00;99.90
9965;DHT22;5023;53.554;9.964;2022-07-12T22:16:31;22.00;99.90
9965;DHT22;5023;53.554;9.964;2022-07-12T22:21:44;21.90;99.90
9965;DHT22;5023;53.554;9.964;2022-07-12T22:27:01;21.90;99.90
9965;DHT22;5023;53.554;9.964;2022-07-12T22:32:04;22.00;99.90
9965;DHT22;5023;53.554;9.964;2022-07-12T22:37:11;22.00;99.90
9965;DHT22;5023;53.554;9.964;2022-07-12T22:42:27;21.90;99.90
9965;DHT22;5023;53.554;9.964;2022-07-12T22:47:30;21.90;99.90
9965;DHT22;5023;53.554;9.964;2022-07-12T22:52:34;21.90;99.90
9965;DHT22;5023;53.554;9.964;2022-07-12T22:57:54;22.00;99.90
9965;DHT22;5023;53.554;9.964;2022-07-12T23:03:33;22.00;99.90
9965;DHT22;5023;53.554;9.964;2022-07-12T23:13:58;22.00;99.90
9965;DHT22;5023;53.554;9.964;2022-07-12T23:19:15;21.90;99.90
9965;DHT22;5023;53.554;9.964;2022-07-12T23:25:20;21.80;99.90
9965;DHT22;5023;53.554;9.964;2022-07-12T23:30:36;21.80;99.90
9965;DHT22;5023;53.554;9.964;2022-07-12T23:35:39;21.80;99.90
9965;DHT22;5023;53.554;9.964;2022-07-12T23:40:42;21.80;99.90
9965;DHT22;5023;53.554;9.964;2022-07-12T23:45:51;21.80;99.90
9965;DHT22;5023;53.554;9.964;2022-07-12T23:50:55;21.80;99.90
